Time;durP1;ratioP1;P1;durP2;ratioP2;P2;SDS_P1;SDS_P2;PMS_P1;PMS_P2;Temp;Humidity;BMP_temperature;BMP_pressure;BME280_temperature;BME280_humidity;BME280_pressure;Samples;Min_cycle;Max_cycle;Signal;HPM_P1;HPM_P2
2022/06/25 00:01:14;;;;;;;4.15;2.20;;;;;;;;;;4994372;28;20073;-76
2022/06/25 00:03:40;;;;;;;2.00;1.77;;;;;;;;;;4994418;28;20030;-76
2022/06/25 00:06:06;;;;;;;2.53;2.05;;;;;;;;;;4994151;28;20040;-76
2022/06/25 00:08:32;;;;;;;1.83;1.70;;;;;;;;;;4976818;28;20114;-76
2022/06/25 00:10:58;;;;;;;2.85;1.95;;;;;;;;;;4976647;28;20038;-76
2022/06/25 00:13:23;;;;;;;2.33;1.70;;;;;;;;;;4976726;28;20063;-76
2022/06/25 00:15:49;;;;;;;1.85;1.70;;;;;;;;;;4976672;28;20409;-76
2022/06/25 00:18:15;;;;;;;2.70;1.50;;;;;;;;;;4976260;28;20034;-76
2022/06/25 00:20:42;;;;;;;1.75;1.65;;;;;;;;;;4994210;28;20165;-76
2022/06/25 00:23:07;;;;;;;4.05;1.92;;;;;;;;;;4976349;28;20087;-76
2022/06/25 00:25:33;;;;;;;2.05;1.63;;;;;;;;;;4993653;28;20117;-76
2022/06/25 00:27:58;;;;;;;1.80;1.70;;;;;;;;;;4976214;28;20357;-77
2022/06/25 00:30:24;;;;;;;1.73;1.63;;;;;;;;;;4993666;28;20390;-76
2022/06/25 00:32:49;;;;;;;3.42;1.70;;;;;;;;;;4976269;28;20030;-77
2022/06/25 00:35:15;;;;;;;2.08;1.70;;;;;;;;;;4976726;28;20455;-76
2022/06/25 00:37:40;;;;;;;2.80;1.73;;;;;;;;;;4976014;28;20121;-76
2022/06/25 00:40:07;;;;;;;2.15;1.67;;;;;;;;;;4993742;28;20062;-76
2022/06/25 00:42:32;;;;;;;2.08;1.70;;;;;;;;;;4993726;28;20041;-76
2022/06/25 00:44:57;;;;;;;1.67;1.52;;;;;;;;;;4976067;28;20391;-76
2022/06/25 00:47:23;;;;;;;1.73;1.50;;;;;;;;;;4975950;28;20034;-76
2022/06/25 00:49:48;;;;;;;1.90;1.60;;;;;;;;;;4993304;28;20037;-76
2022/06/25 00:52:18;;;;;;;1.77;1.52;;;;;;;;;;4976073;28;20031;-76
2022/06/25 00:54:55;;;;;;;1.80;1.70;;;;;;;;;;4975991;28;20505;-76
2022/06/25 00:57:26;;;;;;;4.15;2.00;;;;;;;;;;4975895;28;20062;-76
2022/06/25 00:59:53;;;;;;;2.78;1.70;;;;;;;;;;4976120;28;20045;-77
2022/06/25 01:02:22;;;;;;;2.08;1.88;;;;;;;;;;4975753;28;20033;-77
2022/06/25 01:04:49;;;;;;;2.53;1.83;;;;;;;;;;4976070;28;20030;-77
2022/06/25 01:07:14;;;;;;;1.70;1.60;;;;;;;;;;4992833;28;20463;-76
2022/06/25 01:09:40;;;;;;;1.83;1.63;;;;;;;;;;4975460;28;20096;-76
2022/06/25 01:12:06;;;;;;;3.17;1.75;;;;;;;;;;4992796;28;20517;-77
2022/06/25 01:14:31;;;;;;;2.13;1.67;;;;;;;;;;4975509;28;20489;-76
2022/06/25 01:16:57;;;;;;;1.50;1.40;;;;;;;;;;4992751;28;20034;-76
2022/06/25 01:19:22;;;;;;;1.92;1.65;;;;;;;;;;4959523;28;20034;-76
2022/06/25 01:21:48;;;;;;;2.30;1.50;;;;;;;;;;4993003;28;20064;-76
2022/06/25 01:24:13;;;;;;;1.65;1.45;;;;;;;;;;4993298;28;20206;-76
2022/06/25 01:26:40;;;;;;;2.03;1.67;;;;;;;;;;4993366;28;20038;-76
2022/06/25 01:29:07;;;;;;;1.60;1.50;;;;;;;;;;4975433;28;20046;-76
2022/06/25 01:31:32;;;;;;;4.65;1.67;;;;;;;;;;4975305;28;20026;-76
2022/06/25 01:33:58;;;;;;;1.67;1.30;;;;;;;;;;4993009;28;20378;-76
2022/06/25 01:36:24;;;;;;;1.50;1.40;;;;;;;;;;4975315;28;20547;-76
2022/06/25 01:38:49;;;;;;;1.48;1.38;;;;;;;;;;4975220;28;20113;-76
2022/06/25 01:41:15;;;;;;;1.40;1.30;;;;;;;;;;4993065;28;20034;-76
2022/06/25 01:43:40;;;;;;;3.72;1.40;;;;;;;;;;4992462;28;20042;-76
2022/06/25 01:46:06;;;;;;;1.77;1.45;;;;;;;;;;4975543;28;20027;-76
2022/06/25 01:48:32;;;;;;;4.65;1.50;;;;;;;;;;4975341;28;20431;-76
2022/06/25 01:50:57;;;;;;;6.45;1.70;;;;;;;;;;4975134;28;20072;-76
2022/06/25 01:53:22;;;;;;;1.80;1.40;;;;;;;;;;4992479;28;20033;-76
2022/06/25 01:55:48;;;;;;;1.80;1.40;;;;;;;;;;4975333;28;20475;-76
2022/06/25 01:58:14;;;;;;;1.65;1.30;;;;;;;;;;4974889;28;20035;-76
2022/06/25 02:00:39;;;;;;;1.80;1.70;;;;;;;;;;4960198;28;20069;-76
2022/06/25 02:03:04;;;;;;;1.85;1.55;;;;;;;;;;4996641;28;20121;-76
2022/06/25 02:08:14;;;;;;;;;;;;;;;;;;4982103;28;20518;-76
2022/06/25 02:10:40;;;;;;;1.00;1.00;;;;;;;;;;4996497;28;19914;-76
2022/06/25 02:13:06;;;;;;;1.60;1.50;;;;;;;;;;4979001;28;20038;-76
2022/06/25 02:15:32;;;;;;;1.75;1.40;;;;;;;;;;4978814;28;20501;-76
2022/06/25 02:17:58;;;;;;;1.40;1.30;;;;;;;;;;4996410;28;20058;-76
2022/06/25 02:20:23;;;;;;;1.80;1.30;;;;;;;;;;4978569;28;20138;-76
2022/06/25 02:22:49;;;;;;;1.73;1.50;;;;;;;;;;4978559;28;20114;-76
2022/06/25 02:25:14;;;;;;;1.65;1.50;;;;;;;;;;4978802;28;20038;-76
2022/06/25 02:27:40;;;;;;;1.23;1.13;;;;;;;;;;4995930;28;20124;-76
2022/06/25 02:30:06;;;;;;;11.15;1.35;;;;;;;;;;4995822;28;20026;-76
2022/06/25 02:32:31;;;;;;;1.55;1.45;;;;;;;;;;4995843;28;20041;-76
2022/06/25 02:34:57;;;;;;;1.40;1.30;;;;;;;;;;4978604;28;20340;-76
2022/06/25 02:37:22;;;;;;;1.73;1.38;;;;;;;;;;4978353;28;20360;-77
2022/06/25 02:39:48;;;;;;;2.22;1.38;;;;;;;;;;4978349;28;20034;-76
2022/06/25 02:42:13;;;;;;;2.63;1.40;;;;;;;;;;4978330;28;20027;-76
2022/06/25 02:44:38;;;;;;;1.42;1.23;;;;;;;;;;4977986;28;20089;-76
2022/06/25 02:47:04;;;;;;;1.33;1.20;;;;;;;;;;4995745;28;20034;-76
2022/06/25 02:49:30;;;;;;;2.65;1.30;;;;;;;;;;4995770;28;20038;-76
2022/06/25 02:51:55;;;;;;;1.42;1.33;;;;;;;;;;4978189;28;20041;-76
2022/06/25 02:54:21;;;;;;;2.08;1.63;;;;;;;;;;4978191;28;20070;-76
2022/06/25 02:59:30;;;;;;;;;;;;;;;;;;4996294;28;20472;-75
2022/06/25 03:01:55;;;;;;;1.30;1.20;;;;;;;;;;4995391;28;19957;-76
2022/06/25 03:04:24;;;;;;;1.52;1.30;;;;;;;;;;4978211;28;20037;-76
2022/06/25 03:06:50;;;;;;;1.30;1.20;;;;;;;;;;4994921;28;20026;-76
2022/06/25 03:09:16;;;;;;;1.45;1.35;;;;;;;;;;4961402;28;20046;-76
2022/06/25 03:11:41;;;;;;;1.63;1.40;;;;;;;;;;4995524;28;20462;-76
2022/06/25 03:14:07;;;;;;;1.92;1.10;;;;;;;;;;4977693;28;20022;-77
2022/06/25 03:16:32;;;;;;;1.52;1.42;;;;;;;;;;4995379;28;20374;-76
2022/06/25 03:18:58;;;;;;;2.08;1.30;;;;;;;;;;4977645;28;20072;-76
2022/06/25 03:21:23;;;;;;;2.05;1.30;;;;;;;;;;4994739;28;20038;-76
2022/06/25 03:23:49;;;;;;;1.42;1.30;;;;;;;;;;4995059;28;20034;-76
2022/06/25 03:26:15;;;;;;;1.33;1.25;;;;;;;;;;4977086;28;20038;-76
2022/06/25 03:28:40;;;;;;;1.75;1.30;;;;;;;;;;4977097;28;20173;-76
2022/06/25 03:31:05;;;;;;;1.80;1.30;;;;;;;;;;4977392;28;20030;-76
2022/06/25 03:33:31;;;;;;;2.08;1.35;;;;;;;;;;4994721;28;20040;-76
2022/06/25 03:35:56;;;;;;;3.00;1.33;;;;;;;;;;4977622;28;20034;-76
2022/06/25 03:38:22;;;;;;;1.38;1.27;;;;;;;;;;4977401;28;20026;-76
2022/06/25 03:40:47;;;;;;;3.47;1.10;;;;;;;;;;4994810;28;20053;-76
2022/06/25 03:43:12;;;;;;;1.38;1.10;;;;;;;;;;4994445;28;20041;-76
2022/06/25 03:45:38;;;;;;;2.08;1.27;;;;;;;;;;4977163;28;20427;-76
2022/06/25 03:48:04;;;;;;;1.40;1.30;;;;;;;;;;4977096;28;20482;-76
2022/06/25 03:50:29;;;;;;;3.22;1.20;;;;;;;;;;4960782;28;20093;-76
2022/06/25 03:52:55;;;;;;;1.27;1.05;;;;;;;;;;4976878;28;20065;-76
2022/06/25 03:55:20;;;;;;;1.30;1.20;;;;;;;;;;4994260;28;20030;-76
2022/06/25 03:57:46;;;;;;;2.47;1.10;;;;;;;;;;4977374;28;20030;-76
2022/06/25 04:00:12;;;;;;;3.30;1.30;;;;;;;;;;4976552;28;20038;-76
2022/06/25 04:02:37;;;;;;;1.30;1.20;;;;;;;;;;4976696;28;20050;-76
2022/06/25 04:05:03;;;;;;;1.27;1.17;;;;;;;;;;4994179;28;20426;-76
2022/06/25 04:07:29;;;;;;;1.13;0.90;;;;;;;;;;4994351;28;20399;-76
2022/06/25 04:09:54;;;;;;;1.45;1.20;;;;;;;;;;4976864;28;20037;-76
2022/06/25 04:12:19;;;;;;;1.58;1.20;;;;;;;;;;4960508;28;20113;-76
2022/06/25 04:14:45;;;;;;;1.30;1.20;;;;;;;;;;4994319;28;20026;-77
2022/06/25 04:17:11;;;;;;;2.90;1.30;;;;;;;;;;4976400;28;20034;-76
2022/06/25 04:19:42;;;;;;;2.15;1.35;;;;;;;;;;4960271;28;20129;-76
2022/06/25 04:22:09;;;;;;;1.48;1.10;;;;;;;;;;4976184;28;20399;-76
2022/06/25 04:24:35;;;;;;;1.20;1.13;;;;;;;;;;4959549;28;20033;-76
2022/06/25 04:27:01;;;;;;;2.33;1.15;;;;;;;;;;4976349;28;20054;-77
2022/06/25 04:29:27;;;;;;;2.15;1.20;;;;;;;;;;4994031;28;20062;-76
2022/06/25 04:31:53;;;;;;;2.03;1.10;;;;;;;;;;4993488;28;20045;-76
2022/06/25 04:34:18;;;;;;;1.30;1.20;;;;;;;;;;4994078;28;20487;-76
2022/06/25 04:36:43;;;;;;;2.58;1.20;;;;;;;;;;4976795;28;20023;-76
2022/06/25 04:39:09;;;;;;;1.00;1.00;;;;;;;;;;4976276;28;20022;-77
2022/06/25 04:41:34;;;;;;;1.35;1.17;;;;;;;;;;4960212;28;20034;-76
2022/06/25 04:44:01;;;;;;;1.33;1.23;;;;;;;;;;4975989;28;20049;-76
2022/06/25 04:46:27;;;;;;;3.53;1.45;;;;;;;;;;4993548;28;20038;-76
2022/06/25 04:48:53;;;;;;;1.83;1.08;;;;;;;;;;4976293;28;20050;-76
2022/06/25 04:51:18;;;;;;;2.38;1.27;;;;;;;;;;4975865;28;20034;-76
2022/06/25 04:53:56;;;;;;;1.40;1.05;;;;;;;;;;4976577;28;20031;-77
2022/06/25 04:56:25;;;;;;;1.40;1.00;;;;;;;;;;4975980;28;20026;-75
2022/06/25 04:58:51;;;;;;;2.28;1.30;;;;;;;;;;4976070;28;20435;-75
2022/06/25 05:01:18;;;;;;;1.20;1.10;;;;;;;;;;4944448;28;20395;-76
2022/06/25 05:03:43;;;;;;;1.38;1.10;;;;;;;;;;4976597;28;20042;-76
2022/06/25 05:06:09;;;;;;;1.65;1.30;;;;;;;;;;4960178;28;20034;-75
2022/06/25 05:08:35;;;;;;;1.83;1.30;;;;;;;;;;4976240;28;20493;-75
2022/06/25 05:11:01;;;;;;;3.08;1.02;;;;;;;;;;4976435;28;20125;-76
2022/06/25 05:13:27;;;;;;;1.67;1.10;;;;;;;;;;4977468;28;20153;-76
2022/06/25 05:15:52;;;;;;;1.50;1.20;;;;;;;;;;4976778;28;20046;-76
2022/06/25 05:18:18;;;;;;;1.70;1.02;;;;;;;;;;4960281;28;20466;-76
2022/06/25 05:20:44;;;;;;;1.45;1.35;;;;;;;;;;4994523;28;20487;-77
2022/06/25 05:23:10;;;;;;;4.40;1.20;;;;;;;;;;4960654;28;20128;-78
2022/06/25 05:25:36;;;;;;;1.25;1.10;;;;;;;;;;4976575;28;20073;-77
2022/06/25 05:28:02;;;;;;;2.55;1.33;;;;;;;;;;4959813;28;20368;-78
2022/06/25 05:30:28;;;;;;;1.92;1.30;;;;;;;;;;4993443;28;20094;-78
2022/06/25 05:32:53;;;;;;;2.95;1.40;;;;;;;;;;4993159;28;20113;-78
2022/06/25 05:35:19;;;;;;;2.60;1.23;;;;;;;;;;4974753;28;20096;-78
2022/06/25 05:37:44;;;;;;;2.28;1.10;;;;;;;;;;4959866;28;20038;-79
2022/06/25 05:40:10;;;;;;;2.30;1.17;;;;;;;;;;4959939;28;20110;-79
2022/06/25 05:42:36;;;;;;;2.08;1.00;;;;;;;;;;4975338;28;20491;-78
2022/06/25 05:45:02;;;;;;;1.35;1.08;;;;;;;;;;4992854;28;20093;-79
2022/06/25 05:47:27;;;;;;;4.25;1.30;;;;;;;;;;4960352;28;20541;-79
2022/06/25 05:49:53;;;;;;;3.33;1.38;;;;;;;;;;4994002;28;20042;-78
2022/06/25 05:52:18;;;;;;;3.25;1.38;;;;;;;;;;4993815;28;20026;-79
2022/06/25 05:54:44;;;;;;;1.92;1.27;;;;;;;;;;4976000;28;20031;-79
2022/06/25 05:57:09;;;;;;;3.50;1.50;;;;;;;;;;4959839;28;20108;-79
2022/06/25 05:59:34;;;;;;;7.45;2.45;;;;;;;;;;4960194;28;20136;-80
2022/06/25 06:02:00;;;;;;;14.77;2.58;;;;;;;;;;4992994;28;20057;-80
2022/06/25 06:04:25;;;;;;;7.25;1.85;;;;;;;;;;4976527;28;20119;-81
2022/06/25 06:06:51;;;;;;;6.35;1.80;;;;;;;;;;4976207;28;20479;-79
2022/06/25 06:09:17;;;;;;;5.22;1.65;;;;;;;;;;4976093;28;20121;-79
2022/06/25 06:11:42;;;;;;;4.60;1.60;;;;;;;;;;4975868;28;20129;-79
2022/06/25 06:14:08;;;;;;;4.82;1.75;;;;;;;;;;4960329;28;20487;-79
2022/06/25 06:16:33;;;;;;;5.55;2.13;;;;;;;;;;4975788;28;20038;-80
2022/06/25 06:18:58;;;;;;;3.90;1.52;;;;;;;;;;4975802;28;20068;-79
2022/06/25 06:21:25;;;;;;;4.75;1.90;;;;;;;;;;4975747;28;20129;-79
2022/06/25 06:23:50;;;;;;;2.65;1.55;;;;;;;;;;4959476;28;20031;-82
2022/06/25 06:26:15;;;;;;;3.38;1.60;;;;;;;;;;4975698;28;20030;-80
2022/06/25 06:28:42;;;;;;;6.47;1.75;;;;;;;;;;4993298;28;20089;-81
2022/06/25 06:31:07;;;;;;;4.82;1.70;;;;;;;;;;4976226;28;20479;-83
2022/06/25 06:33:32;;;;;;;9.48;2.45;;;;;;;;;;4993087;28;20033;-79
2022/06/25 06:35:58;;;;;;;8.93;1.90;;;;;;;;;;4993353;28;20434;-79
2022/06/25 06:38:23;;;;;;;5.35;1.55;;;;;;;;;;4959489;28;20448;-79
2022/06/25 06:40:48;;;;;;;5.95;1.65;;;;;;;;;;4975309;28;20117;-79
2022/06/25 06:43:14;;;;;;;2.13;1.40;;;;;;;;;;4992573;28;20045;-79
2022/06/25 06:45:39;;;;;;;3.50;1.70;;;;;;;;;;4993155;28;20125;-81
2022/06/25 06:48:05;;;;;;;9.90;2.00;;;;;;;;;;4978560;28;20054;-80
2022/06/25 06:50:30;;;;;;;6.18;1.88;;;;;;;;;;4979330;28;20034;-79
2022/06/25 06:52:55;;;;;;;8.07;2.33;;;;;;;;;;4997616;28;20030;-80
2022/06/25 06:55:21;;;;;;;7.22;1.98;;;;;;;;;;4979292;28;20034;-81
2022/06/25 06:57:46;;;;;;;8.13;2.17;;;;;;;;;;4978743;28;20121;-80
2022/06/25 07:00:12;;;;;;;4.95;2.08;;;;;;;;;;4996785;28;20387;-80
2022/06/25 07:02:37;;;;;;;6.55;1.38;;;;;;;;;;4978728;28;20042;-80
2022/06/25 07:05:03;;;;;;;5.68;1.52;;;;;;;;;;4995868;28;20030;-80
2022/06/25 07:07:29;;;;;;;5.15;1.70;;;;;;;;;;4996139;28;20030;-79
2022/06/25 07:09:54;;;;;;;4.30;1.98;;;;;;;;;;4985097;28;20037;-80
2022/06/25 07:12:19;;;;;;;4.72;1.80;;;;;;;;;;4992497;28;20121;-80
2022/06/25 07:14:45;;;;;;;2.80;1.40;;;;;;;;;;4998662;28;20030;-81
2022/06/25 07:17:10;;;;;;;5.97;1.55;;;;;;;;;;4981072;28;20052;-80
2022/06/25 07:19:35;;;;;;;3.30;1.40;;;;;;;;;;4997551;28;20031;-81
2022/06/25 07:22:02;;;;;;;3.00;1.50;;;;;;;;;;4978965;28;20034;-79
2022/06/25 07:24:27;;;;;;;4.57;1.45;;;;;;;;;;4979088;28;20034;-81
2022/06/25 07:26:52;;;;;;;5.85;1.40;;;;;;;;;;4996627;28;20033;-81
2022/06/25 07:29:18;;;;;;;4.10;1.40;;;;;;;;;;4978908;28;20053;-80
2022/06/25 07:31:44;;;;;;;2.33;1.27;;;;;;;;;;4963300;28;20081;-80
2022/06/25 07:34:10;;;;;;;1.98;1.40;;;;;;;;;;4962193;28;20058;-82
2022/06/25 07:36:35;;;;;;;5.15;1.38;;;;;;;;;;4978857;28;20064;-80
2022/06/25 07:39:02;;;;;;;4.13;1.42;;;;;;;;;;4995587;28;20126;-80
2022/06/25 07:41:27;;;;;;;2.72;1.40;;;;;;;;;;4978135;28;20092;-81
2022/06/25 07:43:53;;;;;;;3.08;1.38;;;;;;;;;;4978249;28;20467;-82
2022/06/25 07:46:19;;;;;;;4.88;1.17;;;;;;;;;;4978153;28;20030;-80
2022/06/25 07:48:44;;;;;;;2.08;1.08;;;;;;;;;;4978145;28;20061;-81
2022/06/25 07:53:54;;;;;;;1.73;1.23;;;;;;;;;;4980230;28;20412;-80
2022/06/25 07:56:19;;;;;;;2.03;1.30;;;;;;;;;;4978374;28;20022;-80
2022/06/25 07:58:45;;;;;;;2.65;1.17;;;;;;;;;;4961436;28;20034;-82
2022/06/25 08:01:11;;;;;;;1.67;1.25;;;;;;;;;;4978756;28;20038;-79
2022/06/25 08:03:36;;;;;;;3.00;1.33;;;;;;;;;;4979592;28;20076;-81
2022/06/25 08:06:01;;;;;;;3.20;1.60;;;;;;;;;;4994890;28;20026;-81
2022/06/25 08:08:27;;;;;;;1.60;1.30;;;;;;;;;;4962921;28;20030;-81
2022/06/25 08:10:52;;;;;;;2.72;1.30;;;;;;;;;;4995566;28;20038;-81
2022/06/25 08:13:18;;;;;;;1.40;1.02;;;;;;;;;;4995088;28;20030;-80
2022/06/25 08:15:43;;;;;;;1.60;1.40;;;;;;;;;;4977217;28;20463;-80
2022/06/25 08:18:09;;;;;;;1.90;1.30;;;;;;;;;;4995694;28;20038;-80
2022/06/25 08:20:35;;;;;;;2.45;1.60;;;;;;;;;;4978933;28;20490;-80
2022/06/25 08:23:00;;;;;;;2.80;1.30;;;;;;;;;;4978954;28;20027;-80
2022/06/25 08:25:25;;;;;;;3.42;1.20;;;;;;;;;;4994910;28;20104;-80
2022/06/25 08:27:53;;;;;;;1.55;1.15;;;;;;;;;;4995894;28;20066;-80
2022/06/25 08:30:20;;;;;;;1.60;1.10;;;;;;;;;;4978327;28;20038;-80
2022/06/25 08:32:46;;;;;;;1.13;1.02;;;;;;;;;;4964386;28;20388;-80
2022/06/25 08:35:11;;;;;;;1.70;1.10;;;;;;;;;;4987673;28;20033;-79
2022/06/25 08:37:38;;;;;;;2.42;1.30;;;;;;;;;;4971968;28;20037;-80
2022/06/25 08:40:06;;;;;;;2.10;1.20;;;;;;;;;;4998278;28;20030;-81
2022/06/25 08:42:32;;;;;;;1.38;1.27;;;;;;;;;;4994631;28;20062;-80
2022/06/25 08:44:57;;;;;;;1.98;1.40;;;;;;;;;;4977812;28;20034;-81
2022/06/25 08:47:23;;;;;;;1.83;1.20;;;;;;;;;;4976755;28;20034;-80
2022/06/25 08:49:48;;;;;;;2.13;1.23;;;;;;;;;;4994119;28;20030;-80
2022/06/25 08:52:16;;;;;;;1.70;1.25;;;;;;;;;;4976873;28;20433;-80
2022/06/25 08:54:42;;;;;;;2.38;1.42;;;;;;;;;;4976882;28;20053;-81
2022/06/25 08:57:08;;;;;;;3.80;1.77;;;;;;;;;;4994799;28;20042;-80
2022/06/25 08:59:34;;;;;;;1.67;1.13;;;;;;;;;;4977175;28;20041;-81
2022/06/25 09:01:59;;;;;;;2.35;1.52;;;;;;;;;;4961468;28;20026;-81
2022/06/25 09:04:25;;;;;;;2.97;1.20;;;;;;;;;;4976515;28;20030;-81
2022/06/25 09:06:51;;;;;;;1.30;1.10;;;;;;;;;;4961142;28;20034;-81
2022/06/25 09:09:16;;;;;;;1.58;1.38;;;;;;;;;;4976312;28;20026;-80
2022/06/25 09:11:55;;;;;;;1.25;1.15;;;;;;;;;;4976549;28;20045;-80
2022/06/25 09:14:28;;;;;;;2.38;1.45;;;;;;;;;;4978132;28;20165;-81
2022/06/25 09:16:56;;;;;;;2.13;1.30;;;;;;;;;;4976978;28;20038;-81
2022/06/25 09:19:30;;;;;;;1.80;1.20;;;;;;;;;;4976606;28;20038;-81
2022/06/25 09:21:57;;;;;;;4.00;1.50;;;;;;;;;;4961743;28;20190;-81
2022/06/25 09:24:22;;;;;;;1.60;1.33;;;;;;;;;;4976918;28;20054;-81
2022/06/25 09:26:51;;;;;;;2.85;1.30;;;;;;;;;;4960086;28;20104;-81
2022/06/25 09:29:17;;;;;;;2.67;1.30;;;;;;;;;;4977579;28;20046;-81
2022/06/25 09:31:42;;;;;;;3.17;1.63;;;;;;;;;;4976396;28;20487;-81
2022/06/25 09:34:08;;;;;;;2.65;1.27;;;;;;;;;;4994168;28;20034;-80
2022/06/25 09:36:34;;;;;;;1.75;1.20;;;;;;;;;;4977047;28;20018;-81
2022/06/25 09:39:00;;;;;;;3.13;1.55;;;;;;;;;;4975624;28;20109;-81
2022/06/25 09:41:25;;;;;;;1.77;1.65;;;;;;;;;;4960404;28;20434;-81
2022/06/25 09:43:51;;;;;;;1.35;1.02;;;;;;;;;;4993420;28;20030;-81
2022/06/25 09:46:17;;;;;;;2.03;1.30;;;;;;;;;;4975836;28;20417;-80
2022/06/25 09:48:43;;;;;;;2.28;1.27;;;;;;;;;;4976299;28;20054;-81
2022/06/25 09:51:19;;;;;;;2.63;1.90;;;;;;;;;;4960607;28;20030;-80
2022/06/25 09:53:59;;;;;;;3.78;1.40;;;;;;;;;;4976698;28;20105;-81
2022/06/25 09:56:30;;;;;;;2.25;1.33;;;;;;;;;;4967135;28;20037;-80
2022/06/25 09:58:56;;;;;;;3.38;1.73;;;;;;;;;;4985134;28;20114;-80
2022/06/25 10:01:25;;;;;;;2.15;1.45;;;;;;;;;;4976730;28;20395;-80
2022/06/25 10:03:50;;;;;;;2.25;1.40;;;;;;;;;;4993460;28;20022;-81
2022/06/25 10:06:18;;;;;;;2.00;1.50;;;;;;;;;;4993890;28;20494;-80
2022/06/25 10:08:56;;;;;;;2.05;1.40;;;;;;;;;;4976207;28;20041;-81
2022/06/25 10:11:23;;;;;;;3.72;1.40;;;;;;;;;;4976142;28;20042;-80
2022/06/25 10:13:50;;;;;;;1.30;1.20;;;;;;;;;;4975773;28;20030;-80
2022/06/25 10:16:16;;;;;;;2.70;1.20;;;;;;;;;;4976128;28;20333;-80
2022/06/25 10:18:43;;;;;;;3.20;1.60;;;;;;;;;;4976106;28;20049;-81
2022/06/25 10:21:08;;;;;;;2.47;1.40;;;;;;;;;;4977056;28;20030;-81
2022/06/25 10:23:34;;;;;;;1.42;1.23;;;;;;;;;;4964562;28;20113;-81
2022/06/25 10:25:59;;;;;;;1.73;1.30;;;;;;;;;;4963899;28;20042;-81
2022/06/25 10:28:26;;;;;;;2.05;1.30;;;;;;;;;;4964099;28;20105;-81
2022/06/25 10:30:56;;;;;;;2.28;1.40;;;;;;;;;;4979640;28;20046;-81
2022/06/25 10:33:27;;;;;;;1.73;1.33;;;;;;;;;;4997365;28;20045;-81
2022/06/25 10:35:58;;;;;;;3.00;1.30;;;;;;;;;;4997762;28;20073;-81
2022/06/25 10:38:26;;;;;;;5.28;2.17;;;;;;;;;;4980807;28;20089;-85
2022/06/25 10:43:49;;;;;;;8.25;2.95;;;;;;;;;;4982954;28;20053;-86
2022/06/25 10:46:27;;;;;;;7.30;2.67;;;;;;;;;;5000368;28;20060;-84
2022/06/25 10:48:56;;;;;;;4.35;2.13;;;;;;;;;;4997733;28;20336;-86
2022/06/25 10:51:34;;;;;;;3.92;2.15;;;;;;;;;;4964804;28;20432;-86
2022/06/25 10:54:02;;;;;;;2.20;1.70;;;;;;;;;;4984937;28;20022;-86
2022/06/25 10:56:34;;;;;;;4.43;1.95;;;;;;;;;;4979815;28;20455;-84
2022/06/25 10:59:00;;;;;;;3.70;1.80;;;;;;;;;;4980726;28;20065;-84
2022/06/25 11:01:28;;;;;;;3.47;2.03;;;;;;;;;;4997007;28;20035;-83
2022/06/25 11:03:56;;;;;;;3.53;1.80;;;;;;;;;;4979228;28;20497;-84
2022/06/25 11:06:34;;;;;;;5.28;2.15;;;;;;;;;;4979030;28;20030;-84
2022/06/25 11:09:12;;;;;;;4.05;2.08;;;;;;;;;;4965607;28;20061;-83
2022/06/25 11:11:38;;;;;;;3.35;1.80;;;;;;;;;;4979060;28;20081;-83
2022/06/25 11:14:20;;;;;;;3.33;1.83;;;;;;;;;;4963896;28;20058;-83
2022/06/25 11:16:46;;;;;;;4.25;1.80;;;;;;;;;;4979304;28;20490;-83
2022/06/25 11:19:11;;;;;;;3.15;1.80;;;;;;;;;;4974804;28;20022;-82
2022/06/25 11:21:39;;;;;;;3.13;1.85;;;;;;;;;;5011439;28;20119;-83
2022/06/25 11:24:09;;;;;;;3.05;1.75;;;;;;;;;;4997173;28;20071;-84
2022/06/25 11:29:21;;;;;;;3.63;1.40;;;;;;;;;;4981909;28;20109;-83
2022/06/25 11:31:46;;;;;;;3.72;1.73;;;;;;;;;;4996671;28;20027;-82
2022/06/25 11:34:22;;;;;;;3.70;1.67;;;;;;;;;;4977116;28;20031;-84
2022/06/25 11:37:03;;;;;;;4.60;1.30;;;;;;;;;;4979638;28;20046;-84
2022/06/25 11:39:29;;;;;;;4.28;1.67;;;;;;;;;;4962480;28;20068;-83
2022/06/25 11:41:55;;;;;;;2.38;1.50;;;;;;;;;;4997146;28;20118;-84
2022/06/25 11:44:20;;;;;;;1.92;1.25;;;;;;;;;;4977993;28;20058;-83
2022/06/25 11:46:48;;;;;;;6.63;1.70;;;;;;;;;;4996287;28;20044;-82
2022/06/25 11:49:14;;;;;;;3.20;1.50;;;;;;;;;;4996192;28;20048;-83
2022/06/25 11:51:47;;;;;;;2.22;1.50;;;;;;;;;;4978045;28;20109;-84
2022/06/25 11:54:13;;;;;;;2.20;1.40;;;;;;;;;;4995383;28;20038;-83
2022/06/25 11:56:49;;;;;;;1.90;1.25;;;;;;;;;;4998281;28;20100;-86
2022/06/25 11:59:26;;;;;;;2.30;1.55;;;;;;;;;;4977762;28;20018;-85
2022/06/25 12:01:51;;;;;;;2.22;1.35;;;;;;;;;;4961439;28;20088;-84
2022/06/25 12:04:17;;;;;;;3.53;1.52;;;;;;;;;;4945869;28;20494;-85
2022/06/25 12:06:43;;;;;;;4.28;1.50;;;;;;;;;;4977732;28;20061;-84
2022/06/25 12:09:09;;;;;;;11.32;1.60;;;;;;;;;;4961994;28;20089;-83
2022/06/25 12:11:34;;;;;;;6.90;1.63;;;;;;;;;;4978487;28;20038;-83
2022/06/25 12:14:01;;;;;;;4.38;1.65;;;;;;;;;;4963042;28;20033;-84
2022/06/25 12:16:42;;;;;;;8.70;1.55;;;;;;;;;;4978544;28;20050;-83
2022/06/25 12:19:07;;;;;;;11.48;1.70;;;;;;;;;;4977678;28;20023;-84
2022/06/25 12:21:34;;;;;;;5.60;1.80;;;;;;;;;;4977945;28;20041;-83
2022/06/25 12:24:02;;;;;;;12.75;1.60;;;;;;;;;;4995769;28;20035;-83
2022/06/25 12:26:33;;;;;;;3.92;1.67;;;;;;;;;;4962896;28;20034;-83
2022/06/25 12:29:24;;;;;;;2.38;1.70;;;;;;;;;;4977230;28;20054;-84
2022/06/25 12:31:55;;;;;;;3.63;1.30;;;;;;;;;;4980446;28;20030;-83
2022/06/25 12:34:21;;;;;;;1.80;1.20;;;;;;;;;;4961241;28;20031;-83
2022/06/25 12:36:48;;;;;;;2.17;1.20;;;;;;;;;;4960691;28;20034;-84
2022/06/25 12:39:34;;;;;;;5.25;1.52;;;;;;;;;;4960531;28;20064;-83
2022/06/25 12:42:13;;;;;;;2.67;1.10;;;;;;;;;;4984595;28;20064;-87
2022/06/25 12:44:40;;;;;;;7.53;1.60;;;;;;;;;;4997478;28;20034;-85
2022/06/25 12:47:13;;;;;;;7.05;1.20;;;;;;;;;;4978271;28;20380;-85
2022/06/25 12:49:44;;;;;;;;;;;;;;;;;;4978195;28;20026;-83
2022/06/25 12:52:09;;;;;;;5.88;1.20;;;;;;;;;;4977094;28;19909;-82
2022/06/25 12:54:49;;;;;;;3.50;1.73;;;;;;;;;;4994512;28;20031;-85
2022/06/25 12:57:23;;;;;;;2.13;1.25;;;;;;;;;;4960613;28;20030;-87
2022/06/25 12:59:49;;;;;;;2.40;1.60;;;;;;;;;;4976952;28;20026;-85
2022/06/25 13:02:15;;;;;;;5.07;1.90;;;;;;;;;;4976780;28;20157;-85
2022/06/25 13:04:42;;;;;;;6.45;2.17;;;;;;;;;;4944663;28;20030;-84
2022/06/25 13:07:09;;;;;;;7.18;2.50;;;;;;;;;;4977432;28;20390;-86
2022/06/25 13:09:34;;;;;;;7.15;2.85;;;;;;;;;;4994324;28;20045;-85
2022/06/25 13:11:59;;;;;;;7.18;2.42;;;;;;;;;;4960847;28;20038;-85
2022/06/25 13:14:25;;;;;;;6.70;2.63;;;;;;;;;;4976581;28;20442;-84
2022/06/25 13:16:50;;;;;;;3.97;2.53;;;;;;;;;;4977051;28;20487;-85
2022/06/25 13:19:16;;;;;;;5.97;2.70;;;;;;;;;;4961456;28;20475;-84
2022/06/25 13:21:41;;;;;;;4.70;2.40;;;;;;;;;;4979407;28;20113;-84
2022/06/25 13:24:06;;;;;;;4.38;2.60;;;;;;;;;;4979068;28;20088;-84
2022/06/25 13:26:32;;;;;;;4.55;2.55;;;;;;;;;;4976489;28;20029;-84
2022/06/25 13:28:57;;;;;;;5.70;2.53;;;;;;;;;;4994205;28;20105;-85
2022/06/25 13:31:22;;;;;;;3.08;2.45;;;;;;;;;;4978214;28;20038;-85
2022/06/25 13:33:48;;;;;;;5.72;2.65;;;;;;;;;;4994936;28;20109;-86
2022/06/25 13:36:13;;;;;;;4.43;2.50;;;;;;;;;;4961075;28;20022;-86
2022/06/25 13:38:39;;;;;;;9.43;2.83;;;;;;;;;;4995787;28;20060;-84
2022/06/25 13:41:05;;;;;;;4.38;2.38;;;;;;;;;;4960747;28;20031;-85
2022/06/25 13:43:30;;;;;;;4.13;2.58;;;;;;;;;;4976697;28;20181;-86
2022/06/25 13:45:55;;;;;;;3.03;2.28;;;;;;;;;;4977607;28;20105;-86
2022/06/25 13:48:21;;;;;;;5.30;2.47;;;;;;;;;;4995495;28;20034;-84
2022/06/25 13:50:47;;;;;;;4.00;2.33;;;;;;;;;;4978628;28;20030;-85
2022/06/25 13:53:12;;;;;;;6.75;2.45;;;;;;;;;;4977092;28;20034;-84
2022/06/25 13:55:38;;;;;;;5.35;3.05;;;;;;;;;;4961482;28;20030;-84
2022/06/25 13:58:03;;;;;;;4.95;2.58;;;;;;;;;;4948090;28;20030;-84
2022/06/25 14:00:28;;;;;;;3.70;2.20;;;;;;;;;;4998470;28;20027;-84
2022/06/25 14:02:54;;;;;;;9.90;2.92;;;;;;;;;;4964475;28;20060;-86
2022/06/25 14:05:19;;;;;;;5.68;2.90;;;;;;;;;;4986101;28;20026;-85
2022/06/25 14:07:45;;;;;;;7.07;3.50;;;;;;;;;;5016234;28;20041;-85
2022/06/25 14:10:12;;;;;;;4.95;2.80;;;;;;;;;;4994526;28;20058;-85
2022/06/25 14:12:38;;;;;;;5.00;3.00;;;;;;;;;;4969141;28;20086;-85
2022/06/25 14:15:04;;;;;;;6.03;2.42;;;;;;;;;;5000682;28;20130;-85
2022/06/25 14:17:29;;;;;;;9.38;2.95;;;;;;;;;;5001245;28;20034;-84
2022/06/25 14:19:55;;;;;;;6.13;2.80;;;;;;;;;;4949879;28;20051;-85
2022/06/25 14:22:20;;;;;;;4.68;2.72;;;;;;;;;;4951392;28;20038;-84
2022/06/25 14:27:29;;;;;;;4.70;2.28;;;;;;;;;;5002228;28;20088;-85
2022/06/25 14:29:55;;;;;;;6.38;2.47;;;;;;;;;;4966465;28;20038;-86
2022/06/25 14:32:20;;;;;;;4.82;2.58;;;;;;;;;;4998690;28;20034;-85
2022/06/25 14:34:45;;;;;;;3.22;2.25;;;;;;;;;;4998907;28;20120;-85
2022/06/25 14:42:40;;;;;;;7.60;2.10;;;;;;;;;;4983996;28;20057;-85
2022/06/25 14:45:06;;;;;;;3.65;1.90;;;;;;;;;;4950288;28;20451;-86
2022/06/25 14:47:31;;;;;;;6.22;2.15;;;;;;;;;;4951284;28;20034;-86
2022/06/25 14:49:57;;;;;;;4.25;2.20;;;;;;;;;;4981286;28;20168;-85
2022/06/25 14:52:22;;;;;;;3.08;1.95;;;;;;;;;;4981287;28;20026;-86
2022/06/25 14:54:47;;;;;;;4.10;1.70;;;;;;;;;;4980841;28;20031;-85
2022/06/25 14:57:13;;;;;;;3.45;1.90;;;;;;;;;;4980992;28;20022;-84
2022/06/25 14:59:38;;;;;;;4.00;1.85;;;;;;;;;;4981580;28;20026;-85
2022/06/25 15:02:04;;;;;;;8.35;1.67;;;;;;;;;;4981066;28;20109;-84